createdAt,value
2022-11-26T00:01:31.229Z,30.95
2022-11-26T00:06:38.554Z,31.48
2022-11-26T00:11:40.382Z,29.60
2022-11-26T00:16:42.732Z,25.67
2022-11-26T00:21:44.318Z,36.05
2022-11-26T00:26:45.872Z,37.80
2022-11-26T00:31:47.371Z,33.78
2022-11-26T00:36:48.945Z,34.97
2022-11-26T00:41:52.350Z,27.25
2022-11-26T00:46:53.829Z,32.15
2022-11-26T00:51:55.312Z,31.30
2022-11-26T00:56:57.876Z,39.47
2022-11-26T01:01:59.443Z,32.80
2022-11-26T01:07:00.970Z,23.52
2022-11-26T01:12:02.494Z,35.85
2022-11-26T01:17:05.657Z,37.33
2022-11-26T01:22:18.963Z,34.40
2022-11-26T01:27:20.917Z,40.85
2022-11-26T01:32:28.018Z,32.70
2022-11-26T01:37:30.862Z,30.25
2022-11-26T01:42:42.381Z,26.77
2022-11-26T01:47:44.172Z,31.88
2022-11-26T01:52:45.934Z,25.05
2022-11-26T01:57:47.645Z,28.15
2022-11-26T02:02:49.316Z,27.60
2022-11-26T02:07:53.035Z,33.50
2022-11-26T02:12:54.745Z,32.47
2022-11-26T02:18:04.245Z,34.17
2022-11-26T02:23:24.333Z,31.40
2022-11-26T02:28:53.106Z,40.47
2022-11-26T02:34:01.230Z,31.65
2022-11-26T02:39:20.877Z,33.10
2022-11-26T02:44:25.418Z,34.70
2022-11-26T02:49:29.092Z,29.33
2022-11-26T02:54:33.510Z,30.38
2022-11-26T02:59:35.878Z,26.42
2022-11-26T03:04:41.353Z,24.92
2022-11-26T03:09:56.202Z,25.95
2022-11-26T03:14:57.907Z,32.38
2022-11-26T03:19:59.453Z,36.05
2022-11-26T03:25:00.918Z,33.75
2022-11-26T03:30:03.390Z,24.58
2022-11-26T03:35:05.416Z,26.95
2022-11-26T03:40:07.979Z,37.53
2022-11-26T03:45:09.801Z,34.22
2022-11-26T03:50:11.565Z,28.17
2022-11-26T03:55:13.150Z,32.60
2022-11-26T04:00:14.912Z,28.13
2022-11-26T04:05:16.391Z,32.08
2022-11-26T04:10:17.948Z,34.58
2022-11-26T04:15:19.383Z,30.25
2022-11-26T04:20:20.824Z,29.55
2022-11-26T04:25:22.330Z,31.85
2022-11-26T04:30:23.820Z,35.60
2022-11-26T04:35:25.381Z,30.77
2022-11-26T04:40:26.964Z,26.67
2022-11-26T04:45:28.490Z,29.35
2022-11-26T04:50:29.973Z,29.98
2022-11-26T04:55:31.543Z,29.98
2022-11-26T05:00:33.230Z,26.65
2022-11-26T05:05:34.851Z,31.88
2022-11-26T05:10:36.396Z,37.80
2022-11-26T05:15:38.037Z,38.17
2022-11-26T05:20:39.514Z,30.65
2022-11-26T05:25:41.055Z,35.72
2022-11-26T05:30:42.615Z,28.55
2022-11-26T05:35:44.087Z,34.38
2022-11-26T05:40:45.592Z,28.63
2022-11-26T05:45:47.264Z,38.63
2022-11-26T05:50:53.177Z,38.05
2022-11-26T05:55:56.115Z,35.15
2022-11-26T06:00:57.627Z,41.03
2022-11-26T06:05:59.137Z,35.55
2022-11-26T06:11:00.675Z,36.40
2022-11-26T06:16:02.222Z,33.13
2022-11-26T06:21:05.929Z,32.47
2022-11-26T06:26:12.532Z,25.40
2022-11-26T06:31:14.100Z,36.95
2022-11-26T06:36:15.645Z,32.13
2022-11-26T06:41:17.179Z,36.63
2022-11-26T06:46:18.728Z,36.65
2022-11-26T06:51:21.874Z,28.08
2022-11-26T06:56:23.514Z,35.97
2022-11-26T07:01:26.829Z,36.35
2022-11-26T07:06:31.093Z,31.92
2022-11-26T07:11:33.630Z,40.05
2022-11-26T07:16:35.683Z,35.55
2022-11-26T07:21:37.879Z,39.65
2022-11-26T07:26:39.344Z,41.00
2022-11-26T07:31:40.883Z,34.38
2022-11-26T07:36:43.588Z,37.95
2022-11-26T07:41:45.195Z,41.28
2022-11-26T07:46:46.764Z,33.05
2022-11-26T07:51:48.208Z,33.83
2022-11-26T07:56:49.651Z,39.15
2022-11-26T08:01:51.294Z,40.28
2022-11-26T08:06:52.924Z,43.03
2022-11-26T08:11:54.445Z,39.80
2022-11-26T08:16:57.135Z,46.95
2022-11-26T08:21:58.645Z,41.03
2022-11-26T08:27:00.145Z,44.55
2022-11-26T08:32:01.648Z,35.53
2022-11-26T08:37:03.336Z,39.60
2022-11-26T08:42:04.884Z,40.65
2022-11-26T08:47:06.481Z,44.65
2022-11-26T08:52:07.986Z,44.83
2022-11-26T08:57:09.494Z,39.80
2022-11-26T09:02:16.006Z,40.97
2022-11-26T09:07:20.051Z,44.38
2022-11-26T09:12:21.781Z,39.45
2022-11-26T09:17:23.246Z,51.47
2022-11-26T09:22:24.747Z,42.53
2022-11-26T09:27:26.231Z,42.72
2022-11-26T09:32:33.669Z,44.13
2022-11-26T09:37:35.761Z,50.83
2022-11-26T09:42:59.055Z,48.05
2022-11-26T09:48:03.122Z,48.90
2022-11-26T09:53:22.108Z,45.60
2022-11-26T09:58:33.964Z,38.45
2022-11-26T10:03:39.752Z,44.22
2022-11-26T10:08:59.770Z,59.78
2022-11-26T10:14:09.860Z,41.03
2022-11-26T10:19:22.727Z,45.80
2022-11-26T10:24:36.173Z,46.97
2022-11-26T10:29:41.635Z,47.05
2022-11-26T10:34:57.672Z,46.25
2022-11-26T10:40:25.530Z,47.17
2022-11-26T10:45:36.924Z,47.47
2022-11-26T10:50:47.909Z,38.40
2022-11-26T10:55:52.278Z,40.45
2022-11-26T11:00:59.660Z,48.22
2022-11-26T11:06:22.965Z,35.50
2022-11-26T11:11:28.089Z,42.45
2022-11-26T11:16:37.640Z,38.53
2022-11-26T11:21:43.856Z,38.35
2022-11-26T11:26:55.734Z,38.05
2022-11-26T11:31:57.806Z,33.72
2022-11-26T11:37:14.775Z,43.15
2022-11-26T11:42:28.212Z,41.00
2022-11-26T11:47:52.633Z,38.00
2022-11-26T11:53:22.974Z,37.45
2022-11-26T11:58:48.804Z,34.35
2022-11-26T12:04:17.985Z,36.42
2022-11-26T12:09:40.097Z,38.60
2022-11-26T12:14:47.843Z,35.42
2022-11-26T12:25:23.381Z,37.33
2022-11-26T12:30:31.398Z,36.60
2022-11-26T12:35:44.003Z,35.03
2022-11-26T12:40:53.110Z,37.13
2022-11-26T12:46:15.521Z,39.90
2022-11-26T12:51:45.486Z,32.22
2022-11-26T12:57:04.733Z,39.88
2022-11-26T13:02:33.284Z,37.05
2022-11-26T13:08:01.255Z,41.72
2022-11-26T13:13:19.458Z,40.50
2022-11-26T13:18:33.672Z,41.55
2022-11-26T13:23:47.763Z,38.03
2022-11-26T13:29:08.305Z,39.70
2022-11-26T13:34:22.853Z,37.85
2022-11-26T13:39:43.083Z,38.45
2022-11-26T13:44:59.662Z,36.58
2022-11-26T13:50:29.504Z,40.88
2022-11-26T13:55:41.269Z,38.25
2022-11-26T14:00:43.540Z,44.60
2022-11-26T14:05:50.978Z,38.50
2022-11-26T14:10:52.467Z,36.60
2022-11-26T14:15:55.663Z,39.05
2022-11-26T14:20:57.120Z,33.22
2022-11-26T14:25:58.611Z,39.38
2022-11-26T14:31:23.831Z,42.53
2022-11-26T14:36:28.644Z,36.67
2022-11-26T14:41:54.201Z,33.22
2022-11-26T14:46:59.204Z,32.13
2022-11-26T14:52:04.811Z,38.58
2022-11-26T14:57:21.443Z,41.38
2022-11-26T15:02:24.573Z,45.17
2022-11-26T15:07:27.372Z,33.83
2022-11-26T15:12:29.645Z,38.25
2022-11-26T15:17:33.307Z,41.22
2022-11-26T15:22:42.468Z,33.60
2022-11-26T15:27:59.148Z,51.85
2022-11-26T15:33:12.761Z,31.50
2022-11-26T15:38:20.487Z,31.50
2022-11-26T15:48:55.218Z,33.17
2022-11-26T15:53:57.283Z,28.90
2022-11-26T15:59:02.200Z,30.83
2022-11-26T16:04:04.659Z,43.47
2022-11-26T16:09:16.162Z,34.63
2022-11-26T16:14:23.656Z,34.83
2022-11-26T16:19:27.638Z,40.30
2022-11-26T16:24:38.681Z,38.67
2022-11-26T16:29:40.581Z,28.70
2022-11-26T16:34:42.330Z,35.10
2022-11-26T16:39:43.863Z,37.50
2022-11-26T16:44:45.323Z,32.10
2022-11-26T16:49:46.908Z,38.75
2022-11-26T16:54:49.251Z,35.08
2022-11-26T16:59:59.568Z,36.22
2022-11-26T17:05:01.026Z,38.47
2022-11-26T17:10:03.596Z,36.92
2022-11-26T17:15:05.440Z,38.75
2022-11-26T17:20:18.337Z,40.33
2022-11-26T17:25:20.274Z,35.72
2022-11-26T17:30:24.136Z,28.75
2022-11-26T17:35:25.677Z,37.72
2022-11-26T17:40:30.569Z,37.75
2022-11-26T17:45:32.135Z,34.92
2022-11-26T17:50:36.105Z,40.20
2022-11-26T17:55:38.554Z,33.78
2022-11-26T18:00:40.144Z,32.40
2022-11-26T18:05:42.388Z,37.30
2022-11-26T18:10:44.100Z,31.92
2022-11-26T18:15:45.613Z,30.60
2022-11-26T18:20:47.078Z,25.77
2022-11-26T18:25:48.654Z,30.58
2022-11-26T18:30:50.192Z,25.88
2022-11-26T18:35:51.723Z,35.13
2022-11-26T18:41:01.056Z,26.75
2022-11-26T18:46:06.314Z,33.70
2022-11-26T18:51:08.304Z,32.80
2022-11-26T18:56:15.261Z,33.05
2022-11-26T19:01:21.313Z,26.20
2022-11-26T19:06:25.824Z,33.05
2022-11-26T19:11:27.824Z,28.38
2022-11-26T19:16:29.334Z,29.17
2022-11-26T19:21:35.072Z,35.63
2022-11-26T19:26:37.572Z,33.22
2022-11-26T19:31:39.804Z,39.50
2022-11-26T19:36:44.303Z,34.25
2022-11-26T19:41:48.412Z,38.65
2022-11-26T19:46:55.861Z,38.55
2022-11-26T19:51:59.426Z,41.15
2022-11-26T19:57:03.165Z,38.20
2022-11-26T20:02:07.135Z,37.50
2022-11-26T20:07:11.360Z,36.13
2022-11-26T20:12:15.449Z,33.88
2022-11-26T20:17:19.519Z,36.40
2022-11-26T20:22:21.055Z,37.53
2022-11-26T20:27:24.103Z,35.30
2022-11-26T20:32:25.604Z,31.45
2022-11-26T20:37:27.149Z,34.63
2022-11-26T20:42:28.660Z,27.13
2022-11-26T20:47:30.164Z,34.83
2022-11-26T20:52:31.662Z,36.47
2022-11-26T20:57:37.210Z,33.38
2022-11-26T21:02:38.808Z,41.40
2022-11-26T21:07:40.930Z,34.65
2022-11-26T21:12:43.018Z,35.90
2022-11-26T21:17:44.615Z,30.50
2022-11-26T21:22:46.191Z,30.52
2022-11-26T21:27:51.626Z,30.95
2022-11-26T21:32:55.874Z,34.33
2022-11-26T21:37:58.572Z,41.15
2022-11-26T21:43:00.083Z,39.97
2022-11-26T21:48:01.536Z,35.33
2022-11-26T21:53:03.092Z,36.30
2022-11-26T21:58:04.598Z,31.30
2022-11-26T22:03:11.243Z,32.15
2022-11-26T22:08:13.054Z,29.63
2022-11-26T22:13:14.764Z,35.78
2022-11-26T22:18:16.267Z,28.98
2022-11-26T22:23:18.243Z,32.45
2022-11-26T22:28:19.799Z,26.25
2022-11-26T22:33:21.313Z,23.70
2022-11-26T22:38:22.844Z,31.33
2022-11-26T22:43:24.367Z,31.33
2022-11-26T22:48:25.921Z,29.27
2022-11-26T22:53:27.594Z,22.50
2022-11-26T22:58:30.702Z,29.52
2022-11-26T23:03:34.875Z,29.25
2022-11-26T23:08:37.823Z,19.35
2022-11-26T23:13:42.912Z,20.20
2022-11-26T23:18:44.457Z,26.45
2022-11-26T23:23:46.660Z,25.23
2022-11-26T23:28:48.127Z,22.77
2022-11-26T23:33:50.125Z,30.77
2022-11-26T23:38:52.339Z,24.13
2022-11-26T23:43:54.162Z,23.02
2022-11-26T23:48:55.887Z,22.45
2022-11-26T23:53:57.814Z,25.35
2022-11-26T23:59:02.691Z,30.45
